sensor_id;sensor_type;location;lat;lon;timestamp;temperature;humidity
48836;DHT22;62581;47.342;7.908;2023-07-24T00:00:49;21.20;99.90
48836;DHT22;62581;47.342;7.908;2023-07-24T00:03:16;21.20;99.90
48836;DHT22;62581;47.342;7.908;2023-07-24T00:05:42;21.20;99.90
48836;DHT22;62581;47.342;7.908;2023-07-24T00:08:09;21.20;99.90
48836;DHT22;62581;47.342;7.908;2023-07-24T00:10:36;21.20;99.90
48836;DHT22;62581;47.342;7.908;2023-07-24T00:13:04;21.10;99.90
48836;DHT22;62581;47.342;7.908;2023-07-24T00:15:31;21.10;99.90
48836;DHT22;62581;47.342;7.908;2023-07-24T00:17:57;21.00;99.90
48836;DHT22;62581;47.342;7.908;2023-07-24T00:20:24;21.00;99.90
48836;DHT22;62581;47.342;7.908;2023-07-24T00:22:51;21.00;99.90
48836;DHT22;62581;47.342;7.908;2023-07-24T00:25:18;21.10;99.90
48836;DHT22;62581;47.342;7.908;2023-07-24T00:27:45;21.00;99.90
48836;DHT22;62581;47.342;7.908;2023-07-24T00:30:13;21.00;99.90
48836;DHT22;62581;47.342;7.908;2023-07-24T00:32:40;21.00;99.90
48836;DHT22;62581;47.342;7.908;2023-07-24T00:35:07;21.00;99.90
48836;DHT22;62581;47.342;7.908;2023-07-24T00:37:34;21.00;99.90
48836;DHT22;62581;47.342;7.908;2023-07-24T00:40:00;21.00;99.90
48836;DHT22;62581;47.342;7.908;2023-07-24T00:42:27;20.90;99.90
48836;DHT22;62581;47.342;7.908;2023-07-24T00:44:54;20.80;99.90
48836;DHT22;62581;47.342;7.908;2023-07-24T00:47:22;20.80;99.90
48836;DHT22;62581;47.342;7.908;2023-07-24T00:49:49;20.70;99.90
48836;DHT22;62581;47.342;7.908;2023-07-24T00:52:16;20.60;99.90
48836;DHT22;62581;47.342;7.908;2023-07-24T00:54:42;20.60;99.90
48836;DHT22;62581;47.342;7.908;2023-07-24T00:57:10;20.50;99.90
48836;DHT22;62581;47.342;7.908;2023-07-24T00:59:37;20.40;99.90
48836;DHT22;62581;47.342;7.908;2023-07-24T01:02:03;20.40;99.90
48836;DHT22;62581;47.342;7.908;2023-07-24T01:04:32;20.40;99.90
48836;DHT22;62581;47.342;7.908;2023-07-24T01:06:58;20.40;99.90
48836;DHT22;62581;47.342;7.908;2023-07-24T01:09:25;20.30;99.90
48836;DHT22;62581;47.342;7.908;2023-07-24T01:11:54;20.40;99.90
48836;DHT22;62581;47.342;7.908;2023-07-24T01:14:23;20.40;99.90
48836;DHT22;62581;47.342;7.908;2023-07-24T01:16:51;20.30;99.90
48836;DHT22;62581;47.342;7.908;2023-07-24T01:19:22;20.30;99.90
48836;DHT22;62581;47.342;7.908;2023-07-24T01:21:58;20.30;99.90
48836;DHT22;62581;47.342;7.908;2023-07-24T01:24:29;20.30;99.90
48836;DHT22;62581;47.342;7.908;2023-07-24T01:26:58;20.20;99.90
48836;DHT22;62581;47.342;7.908;2023-07-24T01:29:25;20.10;99.90
48836;DHT22;62581;47.342;7.908;2023-07-24T01:31:52;20.10;99.90
48836;DHT22;62581;47.342;7.908;2023-07-24T01:34:19;20.10;99.90
48836;DHT22;62581;47.342;7.908;2023-07-24T01:36:45;20.10;99.90
48836;DHT22;62581;47.342;7.908;2023-07-24T01:39:12;20.00;99.90
48836;DHT22;62581;47.342;7.908;2023-07-24T01:41:39;20.00;99.90
48836;DHT22;62581;47.342;7.908;2023-07-24T01:44:08;20.00;99.90
48836;DHT22;62581;47.342;7.908;2023-07-24T01:46:34;19.90;99.90
48836;DHT22;62581;47.342;7.908;2023-07-24T01:49:01;19.90;99.90
48836;DHT22;62581;47.342;7.908;2023-07-24T01:51:28;19.90;99.90
48836;DHT22;62581;47.342;7.908;2023-07-24T01:53:55;19.90;99.90
48836;DHT22;62581;47.342;7.908;2023-07-24T01:56:22;19.90;99.90
48836;DHT22;62581;47.342;7.908;2023-07-24T01:58:48;19.90;99.90
48836;DHT22;62581;47.342;7.908;2023-07-24T02:01:17;19.80;99.90
48836;DHT22;62581;47.342;7.908;2023-07-24T02:03:43;19.80;99.90
48836;DHT22;62581;47.342;7.908;2023-07-24T02:06:10;19.80;99.90
48836;DHT22;62581;47.342;7.908;2023-07-24T02:08:37;19.80;99.90
48836;DHT22;62581;47.342;7.908;2023-07-24T02:11:04;19.80;99.90
48836;DHT22;62581;47.342;7.908;2023-07-24T02:13:30;19.80;99.90
48836;DHT22;62581;47.342;7.908;2023-07-24T02:15:57;19.70;99.90
48836;DHT22;62581;47.342;7.908;2023-07-24T02:18:25;19.70;99.90
48836;DHT22;62581;47.342;7.908;2023-07-24T02:20:52;19.70;99.90
48836;DHT22;62581;47.342;7.908;2023-07-24T02:23:19;19.70;99.90
48836;DHT22;62581;47.342;7.908;2023-07-24T02:25:45;19.70;99.90
48836;DHT22;62581;47.342;7.908;2023-07-24T02:28:12;19.70;99.90
48836;DHT22;62581;47.342;7.908;2023-07-24T02:30:39;19.60;99.90
48836;DHT22;62581;47.342;7.908;2023-07-24T02:33:06;19.50;99.90
48836;DHT22;62581;47.342;7.908;2023-07-24T02:35:39;19.50;99.90
48836;DHT22;62581;47.342;7.908;2023-07-24T02:38:06;19.50;99.90
48836;DHT22;62581;47.342;7.908;2023-07-24T02:40:32;19.40;99.90
48836;DHT22;62581;47.342;7.908;2023-07-24T02:42:59;19.40;99.90
48836;DHT22;62581;47.342;7.908;2023-07-24T02:45:26;19.40;99.90
48836;DHT22;62581;47.342;7.908;2023-07-24T02:47:53;19.40;99.90
48836;DHT22;62581;47.342;7.908;2023-07-24T02:50:19;19.40;99.90
48836;DHT22;62581;47.342;7.908;2023-07-24T02:52:47;19.40;99.90
48836;DHT22;62581;47.342;7.908;2023-07-24T02:55:14;19.30;99.90
48836;DHT22;62581;47.342;7.908;2023-07-24T02:57:41;19.30;99.90
48836;DHT22;62581;47.342;7.908;2023-07-24T03:00:08;19.30;99.90
48836;DHT22;62581;47.342;7.908;2023-07-24T03:02:35;19.40;99.90
48836;DHT22;62581;47.342;7.908;2023-07-24T03:05:02;19.40;99.90
48836;DHT22;62581;47.342;7.908;2023-07-24T03:07:29;19.40;99.90
48836;DHT22;62581;47.342;7.908;2023-07-24T03:09:57;19.40;99.90
48836;DHT22;62581;47.342;7.908;2023-07-24T03:12:24;19.50;99.90
48836;DHT22;62581;47.342;7.908;2023-07-24T03:14:51;19.50;99.90
48836;DHT22;62581;47.342;7.908;2023-07-24T03:17:17;19.50;99.90
48836;DHT22;62581;47.342;7.908;2023-07-24T03:19:44;19.60;99.90
48836;DHT22;62581;47.342;7.908;2023-07-24T03:22:11;19.60;99.90
48836;DHT22;62581;47.342;7.908;2023-07-24T03:24:38;19.70;99.90
48836;DHT22;62581;47.342;7.908;2023-07-24T03:27:06;19.70;99.90
48836;DHT22;62581;47.342;7.908;2023-07-24T03:29:33;19.70;99.90
48836;DHT22;62581;47.342;7.908;2023-07-24T03:32:01;19.70;99.90
48836;DHT22;62581;47.342;7.908;2023-07-24T03:34:28;19.70;99.90
48836;DHT22;62581;47.342;7.908;2023-07-24T03:36:54;19.70;99.90
48836;DHT22;62581;47.342;7.908;2023-07-24T03:39:21;19.80;99.90
48836;DHT22;62581;47.342;7.908;2023-07-24T03:41:48;19.80;99.90
48836;DHT22;62581;47.342;7.908;2023-07-24T03:44:16;19.80;99.90
48836;DHT22;62581;47.342;7.908;2023-07-24T03:46:43;19.80;99.90
48836;DHT22;62581;47.342;7.908;2023-07-24T03:49:09;19.80;99.90
48836;DHT22;62581;47.342;7.908;2023-07-24T03:51:36;19.90;99.90
48836;DHT22;62581;47.342;7.908;2023-07-24T03:54:03;19.90;99.90
48836;DHT22;62581;47.342;7.908;2023-07-24T03:56:30;19.80;99.90
48836;DHT22;62581;47.342;7.908;2023-07-24T03:58:56;19.80;99.90
48836;DHT22;62581;47.342;7.908;2023-07-24T04:01:24;19.90;99.90
48836;DHT22;62581;47.342;7.908;2023-07-24T04:03:51;19.90;99.90
48836;DHT22;62581;47.342;7.908;2023-07-24T04:06:18;20.00;99.90
48836;DHT22;62581;47.342;7.908;2023-07-24T04:08:45;20.00;99.90
48836;DHT22;62581;47.342;7.908;2023-07-24T04:11:11;20.00;99.90
48836;DHT22;62581;47.342;7.908;2023-07-24T04:13:38;20.00;99.90
48836;DHT22;62581;47.342;7.908;2023-07-24T04:16:05;19.90;99.90
48836;DHT22;62581;47.342;7.908;2023-07-24T04:18:33;19.90;99.90
48836;DHT22;62581;47.342;7.908;2023-07-24T04:20:59;19.70;99.90
48836;DHT22;62581;47.342;7.908;2023-07-24T04:23:26;19.20;99.90
48836;DHT22;62581;47.342;7.908;2023-07-24T04:25:53;18.80;99.90
48836;DHT22;62581;47.342;7.908;2023-07-24T04:28:20;18.50;99.90
48836;DHT22;62581;47.342;7.908;2023-07-24T04:30:46;18.30;99.90
48836;DHT22;62581;47.342;7.908;2023-07-24T04:33:13;18.30;99.90
48836;DHT22;62581;47.342;7.908;2023-07-24T04:35:41;18.20;99.90
48836;DHT22;62581;47.342;7.908;2023-07-24T04:38:08;18.20;99.90
48836;DHT22;62581;47.342;7.908;2023-07-24T04:40:34;18.20;99.90
48836;DHT22;62581;47.342;7.908;2023-07-24T04:43:01;18.30;99.90
48836;DHT22;62581;47.342;7.908;2023-07-24T04:45:28;18.20;99.90
48836;DHT22;62581;47.342;7.908;2023-07-24T04:47:55;18.30;99.90
48836;DHT22;62581;47.342;7.908;2023-07-24T04:50:21;18.30;99.90
48836;DHT22;62581;47.342;7.908;2023-07-24T04:52:49;18.30;99.90
48836;DHT22;62581;47.342;7.908;2023-07-24T04:55:16;18.20;99.90
48836;DHT22;62581;47.342;7.908;2023-07-24T04:57:43;18.20;99.90
48836;DHT22;62581;47.342;7.908;2023-07-24T05:00:10;18.30;99.90
48836;DHT22;62581;47.342;7.908;2023-07-24T05:02:37;18.30;99.90
48836;DHT22;62581;47.342;7.908;2023-07-24T05:05:04;18.30;99.90
48836;DHT22;62581;47.342;7.908;2023-07-24T05:07:31;18.30;99.90
48836;DHT22;62581;47.342;7.908;2023-07-24T05:09:59;18.30;99.90
48836;DHT22;62581;47.342;7.908;2023-07-24T05:12:26;18.30;99.90
48836;DHT22;62581;47.342;7.908;2023-07-24T05:14:53;18.30;99.90
48836;DHT22;62581;47.342;7.908;2023-07-24T05:17:20;18.40;99.90
48836;DHT22;62581;47.342;7.908;2023-07-24T05:19:46;18.40;99.90
48836;DHT22;62581;47.342;7.908;2023-07-24T05:22:13;18.50;99.90
48836;DHT22;62581;47.342;7.908;2023-07-24T05:24:40;18.50;99.90
48836;DHT22;62581;47.342;7.908;2023-07-24T05:27:08;18.50;99.90
48836;DHT22;62581;47.342;7.908;2023-07-24T05:29:35;18.50;99.90
48836;DHT22;62581;47.342;7.908;2023-07-24T05:32:01;18.50;99.90
48836;DHT22;62581;47.342;7.908;2023-07-24T05:34:28;18.60;99.90
48836;DHT22;62581;47.342;7.908;2023-07-24T05:36:55;18.60;99.90
48836;DHT22;62581;47.342;7.908;2023-07-24T05:39:21;18.70;99.90
48836;DHT22;62581;47.342;7.908;2023-07-24T05:41:48;18.80;99.90
48836;DHT22;62581;47.342;7.908;2023-07-24T05:44:16;18.80;99.90
48836;DHT22;62581;47.342;7.908;2023-07-24T05:46:43;18.90;99.90
48836;DHT22;62581;47.342;7.908;2023-07-24T05:49:10;18.90;99.90
48836;DHT22;62581;47.342;7.908;2023-07-24T05:51:36;19.00;99.90
48836;DHT22;62581;47.342;7.908;2023-07-24T05:54:03;19.10;99.90
48836;DHT22;62581;47.342;7.908;2023-07-24T05:56:30;19.10;99.90
48836;DHT22;62581;47.342;7.908;2023-07-24T05:58:56;19.20;99.90
48836;DHT22;62581;47.342;7.908;2023-07-24T06:01:25;19.30;99.90
48836;DHT22;62581;47.342;7.908;2023-07-24T06:03:51;19.30;99.90
48836;DHT22;62581;47.342;7.908;2023-07-24T06:06:18;19.40;99.90
48836;DHT22;62581;47.342;7.908;2023-07-24T06:08:45;19.40;99.90
48836;DHT22;62581;47.342;7.908;2023-07-24T06:11:13;19.30;99.90
48836;DHT22;62581;47.342;7.908;2023-07-24T06:13:39;19.30;99.90
48836;DHT22;62581;47.342;7.908;2023-07-24T06:16:06;19.30;99.90
48836;DHT22;62581;47.342;7.908;2023-07-24T06:18:35;19.30;99.90
48836;DHT22;62581;47.342;7.908;2023-07-24T06:21:01;19.40;99.90
48836;DHT22;62581;47.342;7.908;2023-07-24T06:23:29;19.50;99.90
48836;DHT22;62581;47.342;7.908;2023-07-24T06:25:55;19.60;99.90
48836;DHT22;62581;47.342;7.908;2023-07-24T06:28:22;19.60;99.90
48836;DHT22;62581;47.342;7.908;2023-07-24T06:30:51;19.60;99.90
48836;DHT22;62581;47.342;7.908;2023-07-24T06:33:18;19.60;99.90
48836;DHT22;62581;47.342;7.908;2023-07-24T06:35:48;19.70;99.90
48836;DHT22;62581;47.342;7.908;2023-07-24T06:38:14;19.70;99.90
48836;DHT22;62581;47.342;7.908;2023-07-24T06:40:41;19.70;99.90
48836;DHT22;62581;47.342;7.908;2023-07-24T06:43:08;19.80;99.90
48836;DHT22;62581;47.342;7.908;2023-07-24T06:45:35;20.00;99.90
48836;DHT22;62581;47.342;7.908;2023-07-24T06:48:01;20.00;99.90
48836;DHT22;62581;47.342;7.908;2023-07-24T06:50:28;20.10;99.90
48836;DHT22;62581;47.342;7.908;2023-07-24T06:52:56;20.20;99.90
48836;DHT22;62581;47.342;7.908;2023-07-24T06:55:23;20.30;99.90
48836;DHT22;62581;47.342;7.908;2023-07-24T06:57:50;20.50;99.90
48836;DHT22;62581;47.342;7.908;2023-07-24T07:00:17;20.60;99.90
48836;DHT22;62581;47.342;7.908;2023-07-24T07:02:43;20.60;99.90
48836;DHT22;62581;47.342;7.908;2023-07-24T07:05:10;20.60;99.90
48836;DHT22;62581;47.342;7.908;2023-07-24T07:07:37;20.60;99.90
48836;DHT22;62581;47.342;7.908;2023-07-24T07:10:06;20.60;99.90
48836;DHT22;62581;47.342;7.908;2023-07-24T07:12:33;20.60;99.90
48836;DHT22;62581;47.342;7.908;2023-07-24T07:15:00;20.50;99.90
48836;DHT22;62581;47.342;7.908;2023-07-24T07:17:27;20.40;99.90
48836;DHT22;62581;47.342;7.908;2023-07-24T07:19:53;20.20;99.90
48836;DHT22;62581;47.342;7.908;2023-07-24T07:22:21;20.10;99.90
48836;DHT22;62581;47.342;7.908;2023-07-24T07:24:48;20.10;99.90
48836;DHT22;62581;47.342;7.908;2023-07-24T07:27:16;20.10;99.90
48836;DHT22;62581;47.342;7.908;2023-07-24T07:29:43;20.00;99.90
48836;DHT22;62581;47.342;7.908;2023-07-24T07:32:10;20.00;99.90
48836;DHT22;62581;47.342;7.908;2023-07-24T07:34:37;20.00;99.90
48836;DHT22;62581;47.342;7.908;2023-07-24T07:37:04;20.00;99.90
48836;DHT22;62581;47.342;7.908;2023-07-24T07:39:30;20.10;99.90
48836;DHT22;62581;47.342;7.908;2023-07-24T07:41:57;20.30;99.90
48836;DHT22;62581;47.342;7.908;2023-07-24T07:44:26;20.40;99.90
48836;DHT22;62581;47.342;7.908;2023-07-24T07:46:52;20.60;99.90
48836;DHT22;62581;47.342;7.908;2023-07-24T07:49:19;20.70;99.90
48836;DHT22;62581;47.342;7.908;2023-07-24T07:51:46;21.00;99.90
48836;DHT22;62581;47.342;7.908;2023-07-24T07:54:13;21.00;99.90
48836;DHT22;62581;47.342;7.908;2023-07-24T07:56:41;21.20;99.90
48836;DHT22;62581;47.342;7.908;2023-07-24T07:59:07;21.40;99.90
48836;DHT22;62581;47.342;7.908;2023-07-24T08:01:37;21.70;99.90
48836;DHT22;62581;47.342;7.908;2023-07-24T08:04:04;21.90;99.90
48836;DHT22;62581;47.342;7.908;2023-07-24T08:06:31;22.00;99.90
48836;DHT22;62581;47.342;7.908;2023-07-24T08:08:58;22.10;99.90
48836;DHT22;62581;47.342;7.908;2023-07-24T08:11:24;22.30;99.90
48836;DHT22;62581;47.342;7.908;2023-07-24T08:13:51;22.40;99.90
48836;DHT22;62581;47.342;7.908;2023-07-24T08:16:18;22.50;99.90
48836;DHT22;62581;47.342;7.908;2023-07-24T08:18:46;22.70;99.90
48836;DHT22;62581;47.342;7.908;2023-07-24T08:21:13;22.80;99.90
48836;DHT22;62581;47.342;7.908;2023-07-24T08:23:40;22.90;99.90
48836;DHT22;62581;47.342;7.908;2023-07-24T08:26:07;23.00;99.90
48836;DHT22;62581;47.342;7.908;2023-07-24T08:28:34;23.00;99.90
48836;DHT22;62581;47.342;7.908;2023-07-24T08:31:00;23.20;99.90
48836;DHT22;62581;47.342;7.908;2023-07-24T08:33:27;23.20;99.90
48836;DHT22;62581;47.342;7.908;2023-07-24T08:36:00;23.10;99.90
48836;DHT22;62581;47.342;7.908;2023-07-24T08:38:27;23.20;99.90
48836;DHT22;62581;47.342;7.908;2023-07-24T08:41:00;23.30;99.90
48836;DHT22;62581;47.342;7.908;2023-07-24T08:43:27;23.50;99.90
48836;DHT22;62581;47.342;7.908;2023-07-24T08:45:55;23.70;99.90
48836;DHT22;62581;47.342;7.908;2023-07-24T08:48:22;23.90;99.90
48836;DHT22;62581;47.342;7.908;2023-07-24T08:50:50;23.80;99.90
48836;DHT22;62581;47.342;7.908;2023-07-24T08:53:18;23.60;99.90
48836;DHT22;62581;47.342;7.908;2023-07-24T08:55:45;23.40;99.90
48836;DHT22;62581;47.342;7.908;2023-07-24T08:58:14;23.40;99.90
48836;DHT22;62581;47.342;7.908;2023-07-24T09:00:41;23.60;99.90
48836;DHT22;62581;47.342;7.908;2023-07-24T09:03:08;23.70;99.90
48836;DHT22;62581;47.342;7.908;2023-07-24T09:05:35;23.80;99.90
48836;DHT22;62581;47.342;7.908;2023-07-24T09:08:01;23.30;99.90
48836;DHT22;62581;47.342;7.908;2023-07-24T09:10:30;23.40;99.90
48836;DHT22;62581;47.342;7.908;2023-07-24T09:12:56;23.60;99.90
48836;DHT22;62581;47.342;7.908;2023-07-24T09:15:23;24.00;99.90
48836;DHT22;62581;47.342;7.908;2023-07-24T09:17:50;24.40;99.90
48836;DHT22;62581;47.342;7.908;2023-07-24T09:20:17;24.50;99.90
48836;DHT22;62581;47.342;7.908;2023-07-24T09:22:50;24.60;99.90
48836;DHT22;62581;47.342;7.908;2023-07-24T09:25:17;24.60;99.90
48836;DHT22;62581;47.342;7.908;2023-07-24T09:27:45;24.50;99.90
48836;DHT22;62581;47.342;7.908;2023-07-24T09:30:12;24.50;99.90
48836;DHT22;62581;47.342;7.908;2023-07-24T09:32:40;24.70;99.90
48836;DHT22;62581;47.342;7.908;2023-07-24T09:35:15;24.50;99.90
48836;DHT22;62581;47.342;7.908;2023-07-24T09:37:42;24.50;99.90
48836;DHT22;62581;47.342;7.908;2023-07-24T09:40:09;24.70;99.90
48836;DHT22;62581;47.342;7.908;2023-07-24T09:42:37;25.00;99.90
48836;DHT22;62581;47.342;7.908;2023-07-24T09:45:07;25.30;99.90
48836;DHT22;62581;47.342;7.908;2023-07-24T09:47:34;25.50;99.90
48836;DHT22;62581;47.342;7.908;2023-07-24T09:50:02;25.50;99.90
48836;DHT22;62581;47.342;7.908;2023-07-24T09:52:29;25.50;99.90
48836;DHT22;62581;47.342;7.908;2023-07-24T09:54:59;25.40;99.90
48836;DHT22;62581;47.342;7.908;2023-07-24T09:57:26;25.20;99.90
48836;DHT22;62581;47.342;7.908;2023-07-24T09:59:54;24.90;99.90
48836;DHT22;62581;47.342;7.908;2023-07-24T10:02:24;24.50;99.90
48836;DHT22;62581;47.342;7.908;2023-07-24T10:04:51;24.20;99.90
48836;DHT22;62581;47.342;7.908;2023-07-24T10:07:18;23.90;99.90
48836;DHT22;62581;47.342;7.908;2023-07-24T10:09:47;23.70;99.90
48836;DHT22;62581;47.342;7.908;2023-07-24T10:12:14;23.50;99.90
48836;DHT22;62581;47.342;7.908;2023-07-24T10:14:41;23.30;99.90
48836;DHT22;62581;47.342;7.908;2023-07-24T10:17:09;23.10;99.90
48836;DHT22;62581;47.342;7.908;2023-07-24T10:19:37;23.00;99.90
48836;DHT22;62581;47.342;7.908;2023-07-24T10:22:05;22.90;99.90
48836;DHT22;62581;47.342;7.908;2023-07-24T10:24:32;22.70;99.90
48836;DHT22;62581;47.342;7.908;2023-07-24T10:26:59;22.30;99.90
48836;DHT22;62581;47.342;7.908;2023-07-24T10:29:26;21.30;99.90
48836;DHT22;62581;47.342;7.908;2023-07-24T10:31:53;20.60;99.90
48836;DHT22;62581;47.342;7.908;2023-07-24T10:34:20;19.80;99.90
48836;DHT22;62581;47.342;7.908;2023-07-24T10:36:48;19.50;99.90
48836;DHT22;62581;47.342;7.908;2023-07-24T10:39:15;19.30;99.90
48836;DHT22;62581;47.342;7.908;2023-07-24T10:44:11;19.70;99.90
48836;DHT22;62581;47.342;7.908;2023-07-24T10:46:38;19.40;99.90
48836;DHT22;62581;47.342;7.908;2023-07-24T10:49:08;19.60;99.90
48836;DHT22;62581;47.342;7.908;2023-07-24T10:51:36;19.90;99.90
48836;DHT22;62581;47.342;7.908;2023-07-24T10:54:04;20.40;99.90
48836;DHT22;62581;47.342;7.908;2023-07-24T10:56:32;20.70;99.90
48836;DHT22;62581;47.342;7.908;2023-07-24T10:59:02;21.30;99.90
48836;DHT22;62581;47.342;7.908;2023-07-24T11:08:51;23.00;99.90
48836;DHT22;62581;47.342;7.908;2023-07-24T11:11:22;23.60;99.90
48836;DHT22;62581;47.342;7.908;2023-07-24T11:13:49;23.80;99.90
48836;DHT22;62581;47.342;7.908;2023-07-24T11:16:15;24.00;99.90
48836;DHT22;62581;47.342;7.908;2023-07-24T11:18:45;24.10;99.90
48836;DHT22;62581;47.342;7.908;2023-07-24T11:21:13;24.20;99.90
48836;DHT22;62581;47.342;7.908;2023-07-24T11:23:44;24.30;99.90
48836;DHT22;62581;47.342;7.908;2023-07-24T11:26:11;24.20;99.90
48836;DHT22;62581;47.342;7.908;2023-07-24T11:28:40;24.30;99.90
48836;DHT22;62581;47.342;7.908;2023-07-24T11:31:07;24.50;99.90
48836;DHT22;62581;47.342;7.908;2023-07-24T11:33:33;24.50;99.90
48836;DHT22;62581;47.342;7.908;2023-07-24T11:36:00;24.80;99.90
48836;DHT22;62581;47.342;7.908;2023-07-24T11:38:27;25.10;99.90
48836;DHT22;62581;47.342;7.908;2023-07-24T11:40:54;25.20;99.90
48836;DHT22;62581;47.342;7.908;2023-07-24T11:43:21;25.50;99.90
48836;DHT22;62581;47.342;7.908;2023-07-24T11:45:50;25.50;99.90
48836;DHT22;62581;47.342;7.908;2023-07-24T11:48:18;25.70;99.90
48836;DHT22;62581;47.342;7.908;2023-07-24T11:50:45;25.90;99.90
48836;DHT22;62581;47.342;7.908;2023-07-24T11:53:19;25.80;99.90
48836;DHT22;62581;47.342;7.908;2023-07-24T11:55:47;25.70;99.90
48836;DHT22;62581;47.342;7.908;2023-07-24T11:58:14;25.60;99.90
48836;DHT22;62581;47.342;7.908;2023-07-24T12:00:41;25.50;99.90
48836;DHT22;62581;47.342;7.908;2023-07-24T12:03:09;25.60;99.90
48836;DHT22;62581;47.342;7.908;2023-07-24T12:05:39;25.70;99.90
48836;DHT22;62581;47.342;7.908;2023-07-24T12:08:07;25.70;99.90
48836;DHT22;62581;47.342;7.908;2023-07-24T12:10:35;25.80;99.90
48836;DHT22;62581;47.342;7.908;2023-07-24T12:13:02;25.90;99.90
48836;DHT22;62581;47.342;7.908;2023-07-24T12:15:30;26.00;99.90
48836;DHT22;62581;47.342;7.908;2023-07-24T12:17:58;26.20;99.90
48836;DHT22;62581;47.342;7.908;2023-07-24T12:20:26;26.40;99.90
48836;DHT22;62581;47.342;7.908;2023-07-24T12:22:53;26.40;99.90
48836;DHT22;62581;47.342;7.908;2023-07-24T12:25:20;26.70;99.90
48836;DHT22;62581;47.342;7.908;2023-07-24T12:27:47;27.00;99.90
48836;DHT22;62581;47.342;7.908;2023-07-24T12:30:14;27.10;99.90
48836;DHT22;62581;47.342;7.908;2023-07-24T12:32:41;27.20;99.90
48836;DHT22;62581;47.342;7.908;2023-07-24T12:35:08;26.90;99.90
48836;DHT22;62581;47.342;7.908;2023-07-24T12:37:36;26.90;99.90
48836;DHT22;62581;47.342;7.908;2023-07-24T12:40:05;26.90;99.90
48836;DHT22;62581;47.342;7.908;2023-07-24T12:42:32;26.90;99.90
48836;DHT22;62581;47.342;7.908;2023-07-24T12:44:58;27.00;99.90
48836;DHT22;62581;47.342;7.908;2023-07-24T12:47:27;27.20;99.90
48836;DHT22;62581;47.342;7.908;2023-07-24T12:49:54;27.20;99.90
48836;DHT22;62581;47.342;7.908;2023-07-24T12:52:22;27.20;99.90
48836;DHT22;62581;47.342;7.908;2023-07-24T12:54:51;27.00;99.90
48836;DHT22;62581;47.342;7.908;2023-07-24T12:57:17;26.90;99.90
48836;DHT22;62581;47.342;7.908;2023-07-24T12:59:44;26.80;99.90
48836;DHT22;62581;47.342;7.908;2023-07-24T13:02:11;26.60;99.90
48836;DHT22;62581;47.342;7.908;2023-07-24T13:04:37;26.70;99.90
48836;DHT22;62581;47.342;7.908;2023-07-24T13:07:04;26.60;99.90
48836;DHT22;62581;47.342;7.908;2023-07-24T13:09:31;26.40;99.90
48836;DHT22;62581;47.342;7.908;2023-07-24T13:11:59;26.50;99.90
48836;DHT22;62581;47.342;7.908;2023-07-24T13:14:26;26.50;99.90
48836;DHT22;62581;47.342;7.908;2023-07-24T13:16:53;26.60;99.90
48836;DHT22;62581;47.342;7.908;2023-07-24T13:19:20;26.50;99.90
48836;DHT22;62581;47.342;7.908;2023-07-24T13:21:47;26.40;99.90
48836;DHT22;62581;47.342;7.908;2023-07-24T13:24:13;26.20;99.90
48836;DHT22;62581;47.342;7.908;2023-07-24T13:26:40;26.20;99.90
48836;DHT22;62581;47.342;7.908;2023-07-24T13:29:09;26.20;99.90
48836;DHT22;62581;47.342;7.908;2023-07-24T13:31:36;26.00;99.90
48836;DHT22;62581;47.342;7.908;2023-07-24T13:34:02;25.90;99.90
48836;DHT22;62581;47.342;7.908;2023-07-24T13:36:29;25.70;99.90
48836;DHT22;62581;47.342;7.908;2023-07-24T13:38:56;25.60;99.90
48836;DHT22;62581;47.342;7.908;2023-07-24T13:41:23;25.50;99.90
48836;DHT22;62581;47.342;7.908;2023-07-24T13:43:49;25.30;99.90
48836;DHT22;62581;47.342;7.908;2023-07-24T13:46:18;25.30;99.90
48836;DHT22;62581;47.342;7.908;2023-07-24T13:48:44;25.30;99.90
48836;DHT22;62581;47.342;7.908;2023-07-24T13:51:11;25.10;99.90
48836;DHT22;62581;47.342;7.908;2023-07-24T13:53:38;25.00;99.90
48836;DHT22;62581;47.342;7.908;2023-07-24T13:56:05;25.00;99.90
48836;DHT22;62581;47.342;7.908;2023-07-24T13:58:31;24.90;99.90
48836;DHT22;62581;47.342;7.908;2023-07-24T14:00:58;24.90;99.90
48836;DHT22;62581;47.342;7.908;2023-07-24T14:03:26;24.70;99.90
48836;DHT22;62581;47.342;7.908;2023-07-24T14:05:54;24.50;99.90
48836;DHT22;62581;47.342;7.908;2023-07-24T14:08:21;23.90;99.90
48836;DHT22;62581;47.342;7.908;2023-07-24T14:10:48;23.40;99.90
48836;DHT22;62581;47.342;7.908;2023-07-24T14:13:14;23.30;99.90
48836;DHT22;62581;47.342;7.908;2023-07-24T14:15:41;23.30;99.90
48836;DHT22;62581;47.342;7.908;2023-07-24T14:18:08;23.30;99.90
48836;DHT22;62581;47.342;7.908;2023-07-24T14:20:36;23.30;99.90
48836;DHT22;62581;47.342;7.908;2023-07-24T14:23:05;23.20;99.90
48836;DHT22;62581;47.342;7.908;2023-07-24T14:25:32;22.90;99.90
48836;DHT22;62581;47.342;7.908;2023-07-24T14:27:59;22.70;99.90
48836;DHT22;62581;47.342;7.908;2023-07-24T14:30:26;22.60;99.90
48836;DHT22;62581;47.342;7.908;2023-07-24T14:32:52;22.50;99.90
48836;DHT22;62581;47.342;7.908;2023-07-24T14:35:19;22.50;99.90
48836;DHT22;62581;47.342;7.908;2023-07-24T14:37:47;22.40;99.90
48836;DHT22;62581;47.342;7.908;2023-07-24T14:40:14;22.30;99.90
48836;DHT22;62581;47.342;7.908;2023-07-24T14:42:41;22.20;99.90
48836;DHT22;62581;47.342;7.908;2023-07-24T14:45:08;22.20;99.90
48836;DHT22;62581;47.342;7.908;2023-07-24T14:47:35;22.10;99.90
48836;DHT22;62581;47.342;7.908;2023-07-24T14:50:01;21.90;99.90
48836;DHT22;62581;47.342;7.908;2023-07-24T14:52:28;22.00;99.90
48836;DHT22;62581;47.342;7.908;2023-07-24T14:54:57;22.20;99.90
48836;DHT22;62581;47.342;7.908;2023-07-24T14:57:24;22.90;99.90
48836;DHT22;62581;47.342;7.908;2023-07-24T14:59:50;24.40;99.90
48836;DHT22;62581;47.342;7.908;2023-07-24T15:02:17;26.60;99.90
48836;DHT22;62581;47.342;7.908;2023-07-24T15:04:44;28.60;99.90
48836;DHT22;62581;47.342;7.908;2023-07-24T15:07:10;30.60;99.90
48836;DHT22;62581;47.342;7.908;2023-07-24T15:09:37;31.70;99.90
48836;DHT22;62581;47.342;7.908;2023-07-24T15:12:06;33.40;99.90
48836;DHT22;62581;47.342;7.908;2023-07-24T15:14:32;33.00;99.90
48836;DHT22;62581;47.342;7.908;2023-07-24T15:16:59;34.00;99.90
48836;DHT22;62581;47.342;7.908;2023-07-24T15:19:26;35.10;99.90
48836;DHT22;62581;47.342;7.908;2023-07-24T15:21:52;36.00;99.90
48836;DHT22;62581;47.342;7.908;2023-07-24T15:24:19;37.00;99.90
48836;DHT22;62581;47.342;7.908;2023-07-24T15:26:46;36.30;99.60
48836;DHT22;62581;47.342;7.908;2023-07-24T15:29:14;33.90;99.20
48836;DHT22;62581;47.342;7.908;2023-07-24T15:31:42;32.60;99.90
48836;DHT22;62581;47.342;7.908;2023-07-24T15:34:08;31.20;99.90
48836;DHT22;62581;47.342;7.908;2023-07-24T15:36:35;30.20;99.90
48836;DHT22;62581;47.342;7.908;2023-07-24T15:39:03;29.30;99.90